Meteo Giornale » Osservazioni meteo Italia » Bergamo-Orio Al Serio

ore: 11:50 - Osservazioni Meteo Bergamo-Orio Al Serio
Lat. 45° 40' N Lon. 9° 42' E Alt. 238 metri s.l.m.

sereno Europe/Rome

25 °C

Sereno

Temp. 24 Ore

14 °C

25 °C

Sud/Sud-Ovest

9.3 Km/h

Dew point 10 °C

Umidità 38 %

Visibilità  10 Km

Il sole sorge alle ore 05:55

Il sole tramonta alle ore 20:59

Data e Ora Cielo e Fenomeni T °C DP °C Um. % Pres. hPa Vis. km Vento km/h
Oggi h: 11:50 sereno Sereno 25 10 38 1006 10 S/SO 9.3
Oggi h: 11:20 sereno Sereno 25 9 36 1006 10 N 0
Oggi h: 10:50 sereno Sereno 23 9 40 1006 10 N 5.5
Oggi h: 10:20 sereno Sereno 22 9 43 1006 10 N 5.5
Oggi h: 09:50 sereno Sereno 22 8 40 1006 10 O/SO 7.4
Oggi h: 09:20 sereno Sereno 22 10 46 1006 10 N 5.5
Oggi h: 08:50 sereno Sereno 21 9 46 1006 10 N 0
Oggi h: 08:20 sereno Sereno 20 9 49 1006 10 N 5.5
Oggi h: 07:50 sereno Sereno 18 9 55 1006 10 N 11.1
Oggi h: 07:20 sereno Sereno 17 10 63 1005 10 N 7.4
Oggi h: 06:50 sereno Sereno 15 10 72 1005 10 N/NE 7.4
Oggi h: 06:20 sereno Sereno 15 9 67 1005 10 N 5.5
Oggi h: 05:50 sereno Sereno 15 9 67 1005 10 N 5.5
Oggi h: 05:20 sereno Sereno 14 8 67 1005 10 N 9.3
Oggi h: 04:50 sereno Sereno 16 9 63 1005 10 N 5.5
Oggi h: 04:20 sereno Sereno 16 9 63 1005 10 N 11.1
Oggi h: 03:50 poco_nuvoloso Poco Nuvoloso 16 10 67 1005 10 N/NE 7.4
Oggi h: 03:20 poco_nuvoloso Poco Nuvoloso 17 10 63 1005 10 NE 13
Oggi h: 02:50 poco_nuvoloso Poco Nuvoloso 17 10 63 1005 10 NE 9.3
Oggi h: 02:20 poco_nuvoloso Poco Nuvoloso 17 11 67 1006 10 N 5.5
Oggi h: 01:50 poco_nuvoloso Poco Nuvoloso 18 11 63 1006 10 N 5.5
Oggi h: 01:20 poco_nuvoloso Poco Nuvoloso 18 12 67 1006 10 N 16.7
Oggi h: 00:50 poco_nuvoloso Poco Nuvoloso 18 14 77 1006 10 NE 11.1
Oggi h: 00:20 poco_nuvoloso Poco Nuvoloso 17 14 82 1006 10 N/NO 13
Ieri h: 23:50 poco_nuvoloso Poco Nuvoloso 19 16 82 1006 10 N 5.5
Ieri h: 16:50 poco_nuvoloso Poco Nuvoloso 25 16 57 1004 10 N 3.7
Ieri h: 16:20 poco_nuvoloso Poco Nuvoloso 24 17 64 1003 10 E 7.4
Ieri h: 15:50 nuvoloso Nuvoloso 24 16 60 1004 10 N 5.5
Ieri h: 15:20 nuvoloso Nuvoloso 22 17 73 1004 10 N 5.5
Ieri h: 14:50 nuvoloso Nuvoloso 22 17 73 1004 10 NE 9.3
Ieri h: 14:20 molto_nuvoloso Molto Nuvoloso 20 17 82 1004 10 N/NE 9.3
Ieri h: 13:50 molto_nuvoloso Molto Nuvoloso 19 17 88 1005 10 N 5.5
Ieri h: 13:20 molto_nuvoloso Molto Nuvoloso 19 16 82 1004 10 N 5.5
Ieri h: 12:50 molto_nuvoloso Molto Nuvoloso 19 16 82 1005 10 N/NE 9.3